空港情報

日本の空港の気象及び、管制情報です。
気象情報はより詳細な情報が取得できる「AVIATION WEATER CENTER」 から取得しているため、VATSIMの気象情報と若干のタイムラグが生じることがあります。

VRCのフィールド設定用空港一覧はこちらをご覧ください。

RJCG Sapporo Control

RJCW / Wakkanai
VMC

NO RADAR

RADIO

08/26 2200x45

民間 civil

9999

200@17KT

30.21

RJCW 160100Z 20017KT 9999 FEW025 BKN/// 10/03 Q1023

RJER / Rishiri

NO RADAR

REMOTE

25/07 1800x45

民間 civil

過去5時間に発表されたMETARがありません。

RJEB / Monbetsu
VMC

NO RADAR

REMOTE

32/14 2000x45

民間 civil

9999

050@6KT

30.24

RJEB 160100Z 05006KT 9999 FEW040 BKN/// 10/01 Q1024

RJCM / Memanbetsu
VMC

NO RADAR

TOWER

36/18 2500x45

民間 civil

9999

200@12KT

30.27

RJCM 160100Z 20012KT 160V230 9999 FEW050 BKN/// 14/M04 Q1025

RJEC / Asahikawa
VMC

NO RADAR

TOWER

34/16 2500x60

民間 civil

9999

180@12KT

30.24

RJEC 160100Z 18012KT 9999 FEW030 BKN/// 12/01 Q1024

RJCN / Nakashibetsu
VMC

NO RADAR

RADIO

08/26 2000x45

民間 civil

9999

230@11KT

30.30

RJCN 160100Z 23011KT 180V260 9999 FEW050 BKN/// 11/M04 Q1026

RJCK / Kushiro
VMC

NO RADAR

TOWER

17/35 2500x45

民間 civil

9999

160@9KT

30.32

RJCK 160100Z 16009KT 130V220 CAVOK 09/M01 Q1027

RJCO / Sapporo
VMC

RJCO_APP

TOWER

14/32 1500x30

共用 dual

9999

140@22KT

30.27

RJCO 160100Z 14022KT 9999 FEW030 BKN230 12/03 Q1025

RJCJ / Chitose

RJCC_APP

TOWER

36R/18L 3000x60
36L/18R 2700x45

自衛隊 military

過去5時間に発表されたMETARがありません。

RJCC / NewChitose
VMC

RJCC_APP

TOWER

01L/19R 3000x60
01R/19L 3000x60

民間 civil

9999

180@17KT

30.30

RJCC 160130Z 18017KT 9999 FEW015 BKN/// 11/03 Q1026

RJCB / Obihiro
VMC

NO RADAR

TOWER

35/17 2500x45

民間 civil

9999

000@4KT

30.30

RJCB 160100Z VRB04KT CAVOK 12/M02 Q1026

RJEO / Okushiri

NO RADAR

REMOTE

12/30 1500x45

民間 civil

過去5時間に発表されたMETARがありません。

RJCH / Hakodate
VMC

RJCH_APP

TOWER

12/30 3000x45

民間 civil

9999

110@22KT

30.24

RJCH 160100Z 11022KT 9999 FEW040 BKN/// 13/M02 Q1024

RJSA / Aomori
VMC

NO RADAR

TOWER

24/06 3000x60

民間 civil

9999

000@8KT

30.21

RJSA 160100Z VRB08KT 9999 FEW050 BKN/// 14/M03 Q1023

RJSO / Ominato

RJSM_APP

TOWER

04/22 600x45

自衛隊 military

過去5時間に発表されたMETARがありません。

RJSM / Misawa
VMC

RJSM_APP

TOWER

10/28 3050x45

共用 dual

9999

130@18KT

30.27

RJSM 160100Z 13018KT 9999 FEW040 BKN230 11/01 Q1025

RJSH / Hachinohe

RJSM_APP

TOWER

25/07 2250x45

自衛隊 military

過去5時間に発表されたMETARがありません。

RJSK / Akita
VMC

NO RADAR

TOWER

10/28 2500x60

民間 civil

9999

150@12KT

30.21

RJSK 160100Z 15012KT 9999 FEW040 BKN/// 14/03 Q1023

RJSI / Hanamaki
VMC

NO RADAR

RADIO

20/02 2500x45

民間 civil

9999

180@13G24KT

30.30

RJSI 160100Z 18013G24KT 140V210 9999 FEW040 14/03 Q1026

RJSR / Odate-Noshiro
VMC

NO RADAR

REMOTE

11/29 2000x45

民間 civil

9999

000@5KT

30.21

RJSR 160100Z VRB05KT 9999 FEW050 BKN/// 14/01 Q1023

RJTG Tokyo Control

RJSY / Shonai
VMC

NO RADAR

RADIO

09/27 2000x45

民間 civil

9999

110@15KT

30.21

RJSY 160100Z 11015KT 9999 FEW030 BKN/// 17/04 Q1023

RJSC / Yamagata
VMC

NO RADAR

RADIO

01/19 2000x45

民間 civil

9999

100@3KT

30.27

RJSC 160100Z 10003KT 360V170 9999 FEW050 14/04 Q1025

RJST / Matsushima

RJSS_APP

TOWER

07/25 2071x46
15/33 1500x46

自衛隊 military

過去5時間に発表されたMETARがありません。

RJSS / Sendai
VMC

RJSS_APP

TOWER

27/09 3000x45
12/30 1200x45

民間 civil

9999

100@6KT

30.32

RJSS 160100Z 10006KT 060V130 9999 FEW040 BKN050 11/04 Q1027

RJSD / Sado

NO RADAR

REMOTE

10/28 890x25

民間 civil

過去5時間に発表されたMETARがありません。

RJSN / Niigata
VMC

RJSN_APP

TOWER

10/28 2500x45
04/22 1314x45

民間 civil

9999

150@14KT

30.18

RJSN 160100Z 15014KT 9999 FEW040 BKN/// 17/03 Q1022

RJSF / Fukushima
VMC

NO RADAR

RADIO

01/19 2500x60

民間 civil

9999

170@16KT

30.30

RJSF 160100Z 17016KT 130V200 9999 FEW030 SCT040 BKN050 13/04 Q1026

RJAH / Ibaraki/Hyakuri
VMC

RJAH_APP

TOWER

03L/21R 2700x45
03R/21L 2700x45

共用 dual

9999

140@10KT

30.32

RJAH 160100Z 14010KT 100V160 9999 FEW030 BKN070 17/05 Q1027

RJTT / Tokyo
VMC

RJTT_APP

TOWER

34LR/16RL 3000x60
04/22&05/23 2500x60

民間 civil

9999

030@6KT

30.32

RJTT 160130Z 03006KT 9999 FEW030 SCT070 BKN/// 15/08 Q1027 NOSIG

RJAA / Narita
VMC

RJTT_APP

TOWER

34L/16R 4000x60
34R/16L 2500x60

民間 civil

9999

140@11KT

30.32

RJAA 160130Z 14011KT 9999 FEW030 SCT040 BKN/// 18/07 Q1027 NOSIG

RJTL / Shimofusa

RJTT_APP

TOWER

19/01 2250x45

自衛隊 military

過去5時間に発表されたMETARがありません。

RJTE / Tateyama

RJTT_APP

TOWER

09/27 300x45

自衛隊 military

過去5時間に発表されたMETARがありません。

RJTO / Oshima
VMC

NO RADAR

RADIO

03/21 1800x45

民間 civil

9999

020@14KT

30.30

RJTO 160100Z 02014KT 9999 FEW020 SCT060 BKN140 16/10 Q1026

RJTK / Kisarazu

NO RADAR

TOWER

02/20 1830x45

自衛隊 military

過去5時間に発表されたMETARがありません。

RJAN / Niijima

NO RADAR

REMOTE

11/29 800x25

自衛隊 military

過去5時間に発表されたMETARがありません。

RJAZ / Kozushima

NO RADAR

REMOTE

11/29 800x25

民間 civil

過去5時間に発表されたMETARがありません。

RJTH / Hachijojima

NO RADAR

RADIO

26/08 2000x45

民間 civil

過去5時間に発表されたMETARがありません。

RJTF / Chofu
VMC

NO RADAR

Flight Service

35/17 800x30

民間 civil

9999

000@3KT

30.32

RJTF 160100Z VRB03KT 9999 FEW040 BKN070 15/06 Q1027

RJTQ / Miyake

NO RADAR

REMOTE

02/20 1200x30

民間 civil

過去5時間に発表されたMETARがありません。

RJTC / Tachikawa

NO RADAR

TOWER

01/19 900x45

自衛隊 military

過去5時間に発表されたMETARがありません。

RJTA / Atsugi

NO RADAR

TOWER

01/19 2438x45

自衛隊 military

過去5時間に発表されたMETARがありません。

RJTU / Utsunomiya

RJTY_APP

TOWER

01/19 1700x45

自衛隊 military

過去5時間に発表されたMETARがありません。

RJTJ / Iruma

RJTY_APP

TOWER

17/35 2000x45

自衛隊 military

過去5時間に発表されたMETARがありません。

RJTY / Yokota
VMC

RJTY_APP

TOWER

18/36 3353x60

自衛隊 military

9999

000@0KT

30.38

RJTY 160056Z AUTO 00000KT 10SM BKN070 14/05 A3038 RMK AO2 SLP293 T01350051 FZRANO $

RJAF / Matsumoto
VMC

NO RADAR

RADIO

18/36 2000x45

民間 civil

9999

150@12KT

30.21

RJAF 160100Z 15012KT 100V180 9999 FEW040 SCT060 BKN080 13/03 Q1023

RJNS / Shizuoka
VMC

NO RADAR

RADIO

30/12 2500x60

民間 civil

9999

050@8KT

30.27

RJNS 160100Z 05008KT 360V110 9999 FEW020 SCT040 BKN070 16/05 Q1025

RJNY / Yaizu-Shizuhama
VMC

NO RADAR

TOWER

27/09 1500x45

自衛隊 military

9999

050@14KT

30.30

RJNY 160115Z 05014KT 9999 FEW020 BKN050 BKN080 16/07 Q1026 RMK 1CU020 5SC050 7AC080 A3030

RJNH / Hamamatsu

RJNH_APP

TOWER

09/27 2550x60

自衛隊 military

過去5時間に発表されたMETARがありません。

RJGG / Chubu
VMC

RJGG_APP

TOWER

36/18 3500x60

民間 civil

9999

120@16KT

30.24

RJGG 160130Z 12016KT 9999 VCSH FEW030 BKN050 16/08 Q1024 NOSIG

RJNA / Nagoya

RJGG_APP

TOWER

34/16 2740x45

民間 civil

過去5時間に発表されたMETARがありません。

RJNG / Gifu
VMC

RJGG_APP

TOWER

28/10 2710x46

自衛隊 military

9999

020@4KT

30.24

RJNG 152237Z 02004KT 9999 -SHRA FEW030 BKN045 12/08 Q1024 RMK 2CU030 7SC045 A3026

RJOE / Akeno
VMC

RJOE_APP

TOWER

13/31 500x30
04/22 500x30

自衛隊 military

9999

110@12KT

30.24

RJOE 160033Z 11012KT 9999 -RA FEW020 SCT030 BKN060 16/10 Q1024 RMK 1CU020 3CU030 5SC060 A3025 MAX WIND 20KT

RJNK / Komatsu
VMC

RJNK_APP

TOWER

06/24 2700x45

共用 dual

9999

210@16KT

30.12

RJNK 160100Z 21016KT 9999 FEW030 SCT060 BKN230 20/06 Q1020

RJNW / Noto
VMC

NO RADAR

RADIO

25/07 2000x45

民間 civil

9999

160@6KT

30.15

RJNW 160100Z 16006KT 110V210 9999 FEW040 BKN/// 17/07 Q1021

RJNT / Toyama
VMC

NO RADAR

TOWER

20/02 2000x45

民間 civil

9999

170@12G25KT

30.15

RJNT 160100Z 17012G25KT 120V210 9999 FEW030 SCT080 BKN/// 19/05 Q1021

RJNF / Fukui

NO RADAR

REMOTE

18/36 1200x30

民間 civil

過去5時間に発表されたMETARがありません。

RJBD / Nanki-Shirahama
VMC

NO RADAR

RADIO

15/33 2000x45

民間 civil

9999

110@11KT

30.18

RJBD 160100Z 11011KT 070V140 9999 -SHRA FEW015 SCT030 BKN050 17/10 Q1022

RJOY / Yao
VMC

RJBB_APP

TOWER

27/09 1490x45
13/31 1200x30

民間 civil

9999

100@10KT

30.18

RJOY 160100Z 10010KT 9999 FEW025 SCT060 BKN070 18/11 Q1022

RJOO / Osaka
VMC

RJBB_APP

TOWER

32L/14R 3000x60
32R/14L 1830x45

民間 civil

9999

070@11KT

30.18

RJOO 160100Z 07011KT 9999 FEW025 BKN060 17/12 Q1022 RMK 1CU025 6SC060 A3019

RJOB / Okayama
VMC

RJBB_APP

TOWER

07/25 3000x45

民間 civil

9999

130@11KT

30.15

RJOB 160100Z 13011KT 9999 FEW015 BKN020 15/10 Q1021

RJBB / Kansai
VMC

RJBB_APP

TOWER

06R/24L 3500x60
06L/24R 4000x60

民間 civil

9999

030@7KT

30.15

RJBB 160130Z 03007KT 9999 FEW020 BKN060 16/12 Q1021 NOSIG

RJBE / Kobe
VMC

RJBB_APP

TOWER

09/27 2500x60

民間 civil

9999

050@10KT

30.18

RJBE 160100Z 05010KT 9999 FEW020 BKN060 16/10 Q1022

RJBT / Tajima
VMC

NO RADAR

REMOTE

01/19 1200x30

民間 civil

9999

160@11KT

30.12

RJBT 160100Z 16011KT 120V210 9999 FEW015 SCT030 BKN/// 17/10 Q1020

RJOR / Tottori
VMC

NO RADAR

RADIO

10/28 2000x45

民間 civil

9999

170@17G27KT

30.09

RJOR 160100Z 17017G27KT 9999 FEW035 19/10 Q1019

RJNO / Oki

NO RADAR

REMOTE

07/25 2000x45

民間 civil

過去5時間に発表されたMETARがありません。

RJOH / Miho
VMC

RJOH_APP

TOWER

25/07 2500x45

共用 dual

9999

170@20KT

30.06

RJOH 160100Z 17020KT 9999 FEW030 SCT090 BKN250 20/11 Q1018

RJOC / Izumo
VMC

RJOH_APP

RADIO

07/25 2000x45

共用 dual

9999

180@10KT

30.06

RJOC 160100Z 18010KT 150V210 9999 FEW030 SCT080 BKN090 20/08 Q1018

RJDG Fukuoka Control

RJOT / Takamatsu
VMC

RJBB_APP

TOWER

26/08 2500x60

民間 civil

9999

140@4KT

30.12

RJOT 160100Z 14004KT 060V230 9999 FEW025 SCT035 20/12 Q1020

RJOK / Kochi
VMC

RJBB_APP

TOWER

32/14 2500x45

民間 civil

9999

160@5KT

30.15

RJOK 160100Z 16005KT 100V190 9999 FEW025 SCT035 19/13 Q1021

RJOS / Tokushima
VMC

RJOS_APP

TOWER

29/11 2500x45

共用 dual

9999

130@4KT

30.18

RJOS 160100Z 13004KT 090V170 9999 FEW008 SCT025 BKN040 16/11 Q1022

RJOA / Hiroshima
VMC

RJOA_APP

TOWER

10/28 3000x60

民間 civil

9999

070@7KT

30.12

RJOA 160100Z 07007KT 040V180 9999 FEW025 SCT070 BKN/// 16/08 Q1020

RJBH / Hiroshimanishi

NO RADAR

Flight Service

04/22 1800x45

民間 civil

過去5時間に発表されたMETARがありません。

RJOI / Iwakuni
VMC

RJOI_APP

TOWER

02/20 2440x60

共用 dual

9999

000@0KT

30.14

RJOI 160055Z 00000KT 9999 FEW030 BKN070 BKN100 15/04 A3014 RMK SLP205 T01500039

RJOM / Matsuyama
VMC

RJOI_APP

TOWER

14/32 2500x45

民間 civil

9999

360@14KT

30.09

RJOM 160100Z 36014KT 9999 FEW030 SCT070 16/08 Q1019

RJOZ / Ozuki

RJFZ_APP

TOWER

35/17 1201x61
12/30 899x46

自衛隊 military

過去5時間に発表されたMETARがありません。

RJOF / Hofu

RJFZ_APP

TOWER

30/12 1180x60
01/19 1480x45

自衛隊 military

過去5時間に発表されたMETARがありません。

RJDC / Yamaguchi-Ube
VMC

RJFZ_APP

RADIO

07/25 2500x45

民間 civil

9999

090@15KT

30.09

RJDC 160100Z 09015KT 9999 -RA FEW025 SCT050 BKN070 16/10 Q1019

RJFR / Kitakyushu
VMC

RJFZ_APP

TOWER

18/36 2500x60

民間 civil

9999

100@7KT

30.09

RJFR 160100Z 10007KT 9999 -RA FEW012 BKN050 14/11 Q1019

RJFZ / Tsuiki

RJFZ_APP

TOWER

25/07 2399x46

自衛隊 military

過去5時間に発表されたMETARがありません。

RJOW / Iwami
VMC

NO RADAR

REMOTE

11/29 2000x45

民間 civil

9999

160@12KT

30.06

RJOW 160100Z 16012KT 9999 FEW025 BKN070 19/10 Q1018

RJDT / Tsushima
VMC

NO RADAR

REMOTE

32/14 1900x45

民間 civil

9999

170@5KT

30.03

RJDT 160100Z 17005KT 110V200 9999 FEW025 BKN030 BKN050 16/12 Q1017

RJFF / Fukuoka
VMC

RJFF_APP

TOWER

16/34 2800x60

民間 civil

9999

140@11KT

30.06

RJFF 160130Z 14011KT 9999 FEW040 SCT050 BKN130 17/07 Q1018 NOSIG RMK 1CU040 3SC050 6AC130 A3007

RJFS / Saga
VMC

RJFF_APP

RADIO

29/11 2000x45

民間 civil

9999

080@6KT

30.06

RJFS 160100Z 08006KT 9999 FEW030 BKN050 15/09 Q1018

RJFA / Ashiya

RJFF_APP

TOWER

12/30 1640x46

自衛隊 military

過去5時間に発表されたMETARがありません。

RJDB / Iki

RJFF_APP

REMOTE

20/02 1200x30

民間 civil

過去5時間に発表されたMETARがありません。

RJFO / Oita
VMC

RJFO_APP

TOWER

01/19 3000x45

民間 civil

9999

100@6KT

30.12

RJFO 160100Z 10006KT 9999 -RA FEW020 BKN060 BKN080 14/11 Q1020

RJFU / Nagasaki
VMC

RJFU_APP

TOWER

32/14 3000x60

民間 civil

9999

140@10KT

30.06

RJFU 160100Z 14010KT 9999 -RA FEW015 SCT025 BKN040 14/11 Q1018

RJDU / Omura

RJFU_APP

TOWER

18/36 1200x30

自衛隊 military

過去5時間に発表されたMETARがありません。

RJFE / Fukue
IMC

NO RADAR

RADIO

03/21 2000x45

民間 civil

2000

140@5KT

30.03

RJFE 160100Z 14005KT 080V190 2000 -SHRA BR FEW005 SCT010 BKN015 15/15 Q1017

RJDO / Ojika

NO RADAR

REMOTE

03/21 800x30

民間 civil

過去5時間に発表されたMETARがありません。

RJDK / Kamigoto

NO RADAR

REMOTE

17/35 800x30

民間 civil

過去5時間に発表されたMETARがありません。

RJDA / Amakusa

NO RADAR

Flight Service

31/13 1000x30

民間 civil

過去5時間に発表されたMETARがありません。

RJFT / Kumamoto
VMC

RJFT_APP

TOWER

07/25 3000x45

民間 civil

9999

200@3KT

30.09

RJFT 160100Z 20003KT 170V230 9999 -RA FEW030 BKN050 16/07 Q1019

RJFN / Nyutabaru

RJFM_APP

TOWER

28/10 2701x46

自衛隊 military

過去5時間に発表されたMETARがありません。

RJFM / Miyazaki
VMC

RJFM_APP

TOWER

27/09 2500x45

民間 civil

9999

300@4KT

30.09

RJFM 160100Z 30004KT 270V350 9999 FEW030 BKN070 BKN090 17/09 Q1019

RJFK / Kagoshima
VMC

RJFK_APP

TOWER

34/16 3000x45

民間 civil

9999

110@4KT

30.09

RJFK 160100Z 11004KT 070V140 9999 -RA FEW030 BKN045 OVC100 15/10 Q1019 RMK 1CU030 7SC045 8AS100 A3009 VOLCANIC ASH CLOUD S

RJFY / Kanoya

RJFY_APP

TOWER

26L/08R 2250x45
26R/08L 1200x40

自衛隊 military

過去5時間に発表されたMETARがありません。

RJFG / Tanegashima
VMC

NO RADAR

RADIO

31/13 2000x45

民間 civil

9999

120@13KT

30.06

RJFG 160100Z 12013KT 9999 FEW025 BKN120 19/13 Q1018

RJFC / Yakushima

NO RADAR

REMOTE

14/32 1500x45

民間 civil

過去5時間に発表されたMETARがありません。

RJBG Kobe Control

ROAH / Naha
VMC

ROAH_APP

TOWER

36/18 3000x45

共用 dual

9999

120@9KT

29.97

ROAH 160130Z 12009KT 9999 FEW025 BKN070 24/20 Q1015 RMK 1CU025 5AS070 A2999

RORA / Aguni

ROAH_APP

REMOTE

01/19 800x25

民間 civil

過去5時間に発表されたMETARがありません。

ROKJ / Kumejima

ROAH_APP

REMOTE

03/21 2000x45

民間 civil

過去5時間に発表されたMETARがありません。

RODN / Kadena
VMC

ROAH_APP

TOWER

05L/23R 3688x91
05R/23L 3688x61

自衛隊 military

9999

140@7KT

30.00

RODN 160116Z 14007KT 10SM SCT018 SCT085 23/20 A3000 RMK AO2A SLP165 $

ROTM / Futenma
VMC

ROAH_APP

TOWER

06/24 2740x45

自衛隊 military

9999

130@7KT

30.02

ROTM 160056Z 13007KT 9999 FEW015 BKN050 OVC070 23/19 A3002 RMK SLP151 P0000 T02280194

RORS / Shimojishima
VMC

RORS_APP

TOWER

17/35 3000x60

民間 civil

9999

150@14KT

29.94

RORS 160100Z 15014KT 9999 SCT015 BKN025 BKN080 24/23 Q1014

ROMY / Miyako
VMC

RORS_APP

TOWER

04/22 2000x45

民間 civil

9999

140@10KT

29.94

ROMY 160100Z 14010KT 9999 VCSH FEW014 SCT024 BKN090 24/22 Q1014

ROIG / New Ishigaki
VMC

RORS_APP

TOWER

22/04 2000x45

民間 civil

9999

230@5KT

29.94

ROIG 160100Z 23005KT 210V270 9999 VCSH FEW007 SCT010 FEW020TCU BKN050 25/23 Q1014

RORT / Tarama

RORS_APP

REMOTE

36/18 1500x45

民間 civil

過去5時間に発表されたMETARがありません。

RJKA / Amami
VMC

NO RADAR

RADIO

03/21 2000x45

民間 civil

9999

160@8KT

30.03

RJKA 160100Z 16008KT 9999 FEW018 SCT020 BKN050 23/19 Q1017

RJKI / Kikai
VMC

NO RADAR

REMOTE

07/25 1200x30

民間 civil

9999

130@7KT

30.03

RJKI 160100Z AUTO 13007KT 080V180 9999 FEW021 BKN042 OVC050 23/18 Q1017

RJKN / Tokunoshima

NO RADAR

REMOTE

19/01 2000x45

民間 civil

過去5時間に発表されたMETARがありません。

RJKB / Okierabu

NO RADAR

REMOTE

04/22 1350x45

民間 civil

過去5時間に発表されたMETARがありません。

RORY / Yoron
VMC

NO RADAR

REMOTE

32/14 1320x30

民間 civil

9999

140@10KT

30.00

RORY 160100Z AUTO 14010KT 9999 SCT029 BKN140 BKN160 24/19 Q1016

RORK / Kitadaito
VMC

NO RADAR

REMOTE

03/21 1500x45

民間 civil

9999

100@10KT

30.03

RORK 160100Z AUTO 10010KT 9999 FEW021 BKN130 BKN150 25/19 Q1017

ROMD / Minami-daito
VMC

NO RADAR

REMOTE

02/20 1500x45

民間 civil

9999

100@6KT

30.03

ROMD 160100Z AUTO 10006KT 060V150 9999 NCD 24/19 Q1017

ROYN / Yonaguni
VMC

NO RADAR

REMOTE

26/08 2000x45

民間 civil

9999

010@13KT

29.94

ROYN 160100Z AUTO 01013KT 9999 SCT014 BKN033 OVC050 24/22 Q1014

RORH / Hateruma

NO RADAR

REMOTE

02/20 800x25

民間 civil

過去5時間に発表されたMETARがありません。

ROKR / Kerama

NO RADAR

REMOTE

02/20 800x25

民間 civil

過去5時間に発表されたMETARがありません。